Time;durP1;ratioP1;P1;durP2;ratioP2;P2;SDS_P1;SDS_P2;PMS_P1;PMS_P2;Temp;Humidity;BMP_temperature;BMP_pressure;BME280_temperature;BME280_humidity;BME280_pressure;Samples;Min_cycle;Max_cycle;Signal;HPM_P1;HPM_P2
2022/01/11 00:00:03;;;;;;;477.47;171.60;;;0.10;99.90;;;;;;5092352;28;20079;-81
2022/01/11 00:02:29;;;;;;;528.77;195.00;;;0.00;99.90;;;;;;5074217;28;20043;-81
2022/01/11 00:04:55;;;;;;;353.23;131.63;;;0.00;99.90;;;;;;5092594;28;20397;-82
2022/01/11 00:07:23;;;;;;;264.30;112.87;;;0.00;99.90;;;;;;5093826;28;20036;-83
2022/01/11 00:09:50;;;;;;;245.43;107.80;;;0.00;99.90;;;;;;5076093;28;20043;-81
2022/01/11 00:12:16;;;;;;;422.97;155.73;;;0.00;99.90;;;;;;5076797;28;20671;-82
2022/01/11 00:14:42;;;;;;;270.63;105.87;;;-0.10;99.90;;;;;;5093089;28;20157;-81
2022/01/11 00:17:08;;;;;;;375.47;136.53;;;-0.10;99.90;;;;;;5092653;28;20080;-82
2022/01/11 00:19:34;;;;;;;300.90;119.40;;;-0.10;99.90;;;;;;5093016;28;20032;-81
2022/01/11 00:22:04;;;;;;;328.47;121.40;;;-0.10;99.90;;;;;;5092561;28;20559;-81
2022/01/11 00:24:31;;;;;;;338.47;127.37;;;0.10;99.90;;;;;;5093246;28;20039;-83
2022/01/11 00:27:09;;;;;;;397.43;145.27;;;0.00;99.90;;;;;;5092635;28;20043;-81
2022/01/11 00:29:40;;;;;;;502.73;180.60;;;-0.10;99.90;;;;;;5093825;28;20044;-81
2022/01/11 00:32:11;;;;;;;428.43;154.17;;;-0.10;99.90;;;;;;5075753;28;20039;-80
2022/01/11 00:34:47;;;;;;;481.07;165.60;;;-0.10;99.90;;;;;;5093604;28;20047;-80
2022/01/11 00:37:14;;;;;;;469.60;165.43;;;-0.10;99.90;;;;;;5092011;28;20032;-80
2022/01/11 00:39:42;;;;;;;377.03;134.47;;;-0.10;99.90;;;;;;5094026;28;20105;-82
2022/01/11 00:42:09;;;;;;;454.70;171.73;;;-0.10;99.90;;;;;;5089745;28;20081;-80
2022/01/11 00:44:34;;;;;;;494.90;176.70;;;-0.10;99.90;;;;;;5093698;28;20028;-80
2022/01/11 00:47:00;;;;;;;494.27;172.13;;;-0.20;99.90;;;;;;5092159;28;20117;-80
2022/01/11 00:49:26;;;;;;;500.50;175.00;;;-0.10;99.90;;;;;;5093835;28;20115;-81
2022/01/11 00:51:51;;;;;;;455.90;156.00;;;-0.10;99.90;;;;;;5092347;28;20058;-81
2022/01/11 00:54:17;;;;;;;341.63;127.97;;;-0.20;99.90;;;;;;5075893;28;20486;-82
2022/01/11 00:56:42;;;;;;;445.77;153.40;;;-0.20;99.90;;;;;;5091920;28;20534;-81
2022/01/11 00:59:08;;;;;;;237.40;97.70;;;-0.10;99.90;;;;;;5092593;28;20399;-81
2022/01/11 01:01:37;;;;;;;516.00;175.90;;;-0.10;99.90;;;;;;5092120;28;20106;-81
2022/01/11 01:04:04;;;;;;;462.50;161.83;;;-0.20;99.90;;;;;;5091805;28;20074;-80
2022/01/11 01:06:30;;;;;;;469.97;172.50;;;-0.10;99.90;;;;;;5090464;28;20036;-81
2022/01/11 01:08:56;;;;;;;403.93;143.77;;;-0.10;99.90;;;;;;5091382;28;20399;-82
2022/01/11 01:11:22;;;;;;;412.27;147.17;;;-0.10;99.90;;;;;;5092233;28;20036;-82
2022/01/11 01:13:47;;;;;;;375.10;133.37;;;-0.10;99.90;;;;;;5091376;28;20047;-81
2022/01/11 01:16:13;;;;;;;474.97;169.60;;;-0.10;99.90;;;;;;5091666;28;20109;-81
2022/01/11 01:18:39;;;;;;;362.33;135.70;;;-0.20;99.90;;;;;;5091157;28;20040;-80
2022/01/11 01:21:05;;;;;;;433.40;157.13;;;-0.20;99.90;;;;;;5092521;28;20054;-80
2022/01/11 01:23:31;;;;;;;360.97;136.97;;;-0.20;99.90;;;;;;5090922;28;20501;-82
2022/01/11 01:25:57;;;;;;;502.97;178.03;;;-0.10;99.90;;;;;;5092701;28;20150;-81
2022/01/11 01:28:24;;;;;;;382.43;141.17;;;-0.20;99.90;;;;;;5090517;28;20043;-81
2022/01/11 01:30:52;;;;;;;378.10;135.90;;;-0.10;99.90;;;;;;5092284;28;20089;-81
2022/01/11 01:33:18;;;;;;;292.27;114.83;;;-0.20;99.90;;;;;;5090610;28;20039;-80
2022/01/11 01:35:50;;;;;;;461.43;169.17;;;-0.20;99.90;;;;;;5091491;28;20511;-80
2022/01/11 01:38:21;;;;;;;457.70;163.63;;;-0.20;99.90;;;;;;5088749;28;20504;-81
2022/01/11 01:40:47;;;;;;;440.53;159.17;;;-0.20;99.90;;;;;;5074327;28;20043;-80
2022/01/11 01:43:15;;;;;;;425.97;151.53;;;-0.10;99.90;;;;;;5091076;28;20051;-81
2022/01/11 01:45:43;;;;;;;405.13;147.27;;;-0.10;99.90;;;;;;5090427;28;20047;-80
2022/01/11 01:48:10;;;;;;;335.77;126.70;;;-0.20;99.90;;;;;;5073970;28;20027;-80
2022/01/11 01:50:36;;;;;;;415.53;155.63;;;-0.10;99.90;;;;;;5090496;28;20063;-82
2022/01/11 01:53:04;;;;;;;453.47;165.43;;;0.20;99.90;;;;;;5090702;28;20513;-81
2022/01/11 01:55:30;;;;;;;422.67;158.00;;;-0.10;99.90;;;;;;5073249;28;20040;-80
2022/01/11 01:57:55;;;;;;;416.60;151.97;;;0.00;99.90;;;;;;5091551;28;20047;-80
2022/01/11 02:00:23;;;;;;;446.73;157.97;;;-0.20;99.90;;;;;;5090352;28;20036;-80
2022/01/11 02:02:49;;;;;;;337.27;132.70;;;-0.10;99.90;;;;;;5074103;28;20047;-80
2022/01/11 02:05:15;;;;;;;392.37;146.43;;;-0.10;99.90;;;;;;5087704;28;20127;-80
2022/01/11 02:07:41;;;;;;;362.63;136.33;;;-0.10;99.90;;;;;;5090068;28;20581;-81
2022/01/11 02:10:07;;;;;;;426.13;154.40;;;0.00;99.90;;;;;;5072989;28;20032;-81
2022/01/11 02:12:34;;;;;;;451.80;166.70;;;0.00;99.90;;;;;;5092714;28;20375;-80
2022/01/11 02:15:00;;;;;;;347.87;131.73;;;-0.10;99.90;;;;;;5090395;28;20044;-81
2022/01/11 02:17:27;;;;;;;403.20;151.27;;;-0.10;99.90;;;;;;5075024;28;20043;-80
2022/01/11 02:19:57;;;;;;;491.63;178.73;;;-0.10;99.90;;;;;;5091578;28;20036;-82
2022/01/11 02:22:24;;;;;;;429.57;160.03;;;-0.10;99.90;;;;;;5091774;28;20122;-80
2022/01/11 02:24:50;;;;;;;438.03;162.53;;;-0.10;99.90;;;;;;5092496;28;20043;-80
2022/01/11 02:27:15;;;;;;;431.13;155.23;;;-0.10;99.90;;;;;;5090727;28;20040;-81
2022/01/11 02:29:42;;;;;;;417.13;153.57;;;-0.10;99.90;;;;;;5091268;28;20059;-80
2022/01/11 02:32:08;;;;;;;430.60;162.20;;;-0.10;99.90;;;;;;5091036;28;20040;-80
2022/01/11 02:34:34;;;;;;;422.93;153.13;;;-0.20;99.90;;;;;;5091320;28;20063;-81
2022/01/11 02:36:59;;;;;;;496.63;183.00;;;-0.20;99.90;;;;;;5090447;28;20036;-80
2022/01/11 02:39:25;;;;;;;450.20;164.23;;;-0.20;99.90;;;;;;5090253;28;20046;-80
2022/01/11 02:41:56;;;;;;;488.30;181.70;;;-0.10;99.90;;;;;;5090586;28;20058;-80
2022/01/11 02:44:22;;;;;;;408.93;152.70;;;-0.10;99.90;;;;;;5090219;28;20051;-80
2022/01/11 02:46:48;;;;;;;413.47;141.50;;;-0.20;99.90;;;;;;5087401;28;20489;-82
2022/01/11 02:49:14;;;;;;;482.87;174.67;;;-0.20;99.90;;;;;;5089986;28;20036;-80
2022/01/11 02:51:40;;;;;;;518.00;185.23;;;-0.20;99.90;;;;;;5073787;28;20024;-80
2022/01/11 02:54:06;;;;;;;488.17;184.00;;;-0.10;99.90;;;;;;5089901;28;20036;-80
2022/01/11 02:56:32;;;;;;;360.80;133.70;;;-0.20;99.90;;;;;;5089525;28;20486;-80
2022/01/11 02:58:58;;;;;;;332.93;125.13;;;-0.20;99.90;;;;;;5081051;28;20589;-81
2022/01/11 03:01:24;;;;;;;326.97;127.90;;;-0.20;99.90;;;;;;5089925;28;20046;-79
2022/01/11 03:03:51;;;;;;;520.53;181.80;;;-0.20;99.90;;;;;;5089838;28;20115;-80
2022/01/11 03:06:17;;;;;;;437.73;157.63;;;-0.20;99.90;;;;;;5091338;28;20043;-79
2022/01/11 03:08:46;;;;;;;388.47;142.20;;;-0.20;99.90;;;;;;5093411;28;20044;-82
2022/01/11 03:11:14;;;;;;;432.80;155.60;;;-0.20;99.90;;;;;;5093608;28;20505;-80
2022/01/11 03:13:41;;;;;;;340.50;117.70;;;-0.20;99.90;;;;;;5093815;28;20555;-81
2022/01/11 03:16:08;;;;;;;438.93;151.93;;;-0.20;99.90;;;;;;5093337;28;20510;-81
2022/01/11 03:18:34;;;;;;;437.00;154.20;;;-0.20;99.90;;;;;;5073662;28;20431;-82
2022/01/11 03:21:00;;;;;;;296.83;111.00;;;-0.20;99.90;;;;;;5093269;28;20031;-80
2022/01/11 03:23:26;;;;;;;380.67;132.83;;;-0.20;99.90;;;;;;5093602;28;20032;-80
2022/01/11 03:25:52;;;;;;;346.87;122.63;;;-0.30;99.90;;;;;;5093627;28;20434;-79
2022/01/11 03:28:23;;;;;;;370.90;131.60;;;-0.30;99.90;;;;;;5076162;28;20051;-80
2022/01/11 03:30:51;;;;;;;356.97;127.10;;;-0.20;99.90;;;;;;5092150;28;20059;-80
2022/01/11 03:33:17;;;;;;;340.50;118.93;;;-0.30;99.90;;;;;;5076180;28;20036;-81
2022/01/11 03:35:43;;;;;;;244.47;96.83;;;-0.30;99.90;;;;;;5092987;28;20058;-80
2022/01/11 03:38:11;;;;;;;316.67;116.60;;;-0.40;99.90;;;;;;5093179;28;20044;-80
2022/01/11 03:40:37;;;;;;;269.40;100.17;;;-0.20;99.90;;;;;;5093061;28;20028;-80
2022/01/11 03:43:04;;;;;;;308.77;117.63;;;-0.20;99.90;;;;;;5093023;28;20093;-80
2022/01/11 03:45:30;;;;;;;311.87;118.20;;;-0.20;99.90;;;;;;5093007;28;20386;-80
2022/01/11 03:47:57;;;;;;;344.53;124.83;;;-0.20;99.90;;;;;;5092220;28;20044;-80
2022/01/11 03:50:23;;;;;;;312.30;124.13;;;-0.30;99.90;;;;;;5092419;28;20085;-80
2022/01/11 03:52:58;;;;;;;325.63;122.10;;;-0.30;99.90;;;;;;5092328;28;20052;-81
2022/01/11 03:55:43;;;;;;;193.60;83.63;;;-0.30;99.90;;;;;;5092217;28;20116;-80
2022/01/11 03:58:09;;;;;;;248.67;92.27;;;-0.20;99.90;;;;;;5092524;28;20302;-79
2022/01/11 04:00:35;;;;;;;317.70;112.23;;;-0.30;99.90;;;;;;5092027;28;20035;-80
2022/01/11 04:03:00;;;;;;;263.57;107.77;;;-0.30;99.90;;;;;;5092121;28;20044;-80
2022/01/11 04:05:26;;;;;;;337.10;117.47;;;-0.40;99.90;;;;;;5091723;28;20039;-79
2022/01/11 04:07:52;;;;;;;275.20;107.30;;;-0.30;99.90;;;;;;5089147;28;20032;-81
2022/01/11 04:10:17;;;;;;;330.27;121.83;;;-0.40;99.90;;;;;;5092387;28;20110;-79
2022/01/11 04:12:43;;;;;;;274.93;101.73;;;-0.40;99.90;;;;;;5092148;28;20039;-80
2022/01/11 04:15:09;;;;;;;331.13;119.73;;;-0.40;99.90;;;;;;5091446;28;20455;-80
2022/01/11 04:17:34;;;;;;;266.80;101.23;;;-0.30;99.90;;;;;;5091551;28;20040;-82
2022/01/11 04:20:00;;;;;;;267.10;99.93;;;-0.40;99.90;;;;;;5092794;28;20477;-83
2022/01/11 04:22:25;;;;;;;182.03;82.10;;;-0.40;99.90;;;;;;5076480;28;20064;-83
2022/01/11 04:24:51;;;;;;;216.23;92.00;;;-0.30;99.90;;;;;;5092940;28;20058;-83
2022/01/11 04:27:16;;;;;;;197.93;85.30;;;-0.40;99.90;;;;;;5075640;28;20130;-82
2022/01/11 04:29:42;;;;;;;138.70;68.23;;;-0.40;99.90;;;;;;5078656;28;20475;-83
2022/01/11 04:32:08;;;;;;;122.03;64.37;;;-0.40;99.90;;;;;;5092305;28;20043;-82
2022/01/11 04:34:34;;;;;;;275.33;105.33;;;-0.40;99.90;;;;;;5075566;28;20040;-83
2022/01/11 04:36:59;;;;;;;242.93;96.43;;;-0.40;99.90;;;;;;5091976;28;20032;-82
2022/01/11 04:39:25;;;;;;;167.23;72.77;;;-0.30;99.90;;;;;;5076659;28;20039;-80
2022/01/11 04:41:51;;;;;;;192.50;79.20;;;-0.40;99.90;;;;;;5092703;28;20048;-83
2022/01/11 04:44:17;;;;;;;199.43;84.73;;;-0.40;99.90;;;;;;5093203;28;20051;-82
2022/01/11 04:46:42;;;;;;;238.63;99.47;;;-0.30;99.90;;;;;;5092190;28;20032;-83
2022/01/11 04:49:08;;;;;;;184.83;81.83;;;-0.30;99.90;;;;;;5076267;28;20522;-83
2022/01/11 04:51:35;;;;;;;178.70;79.73;;;-0.20;99.90;;;;;;5092469;28;20057;-82
2022/01/11 04:54:01;;;;;;;195.93;81.20;;;-0.30;99.90;;;;;;5092942;28;20065;-83
2022/01/11 04:56:28;;;;;;;190.97;82.40;;;-0.30;99.90;;;;;;5075133;28;20587;-83
2022/01/11 04:58:54;;;;;;;185.40;83.50;;;-0.20;99.90;;;;;;5076248;28;20149;-81
2022/01/11 05:01:19;;;;;;;178.30;77.07;;;-0.30;99.90;;;;;;5092519;28;20058;-82
2022/01/11 05:03:45;;;;;;;236.57;100.37;;;-0.30;99.90;;;;;;5076587;28;20089;-83
2022/01/11 05:06:11;;;;;;;212.00;90.07;;;-0.30;99.90;;;;;;5092687;28;20045;-82
2022/01/11 05:08:36;;;;;;;215.37;88.43;;;-0.30;99.90;;;;;;5092208;28;20043;-81
2022/01/11 05:11:02;;;;;;;247.00;95.77;;;-0.20;99.90;;;;;;5091915;28;20147;-83
2022/01/11 05:13:31;;;;;;;264.13;103.77;;;-0.20;99.90;;;;;;5092827;28;20546;-83
2022/01/11 05:15:57;;;;;;;194.60;83.43;;;-0.30;99.90;;;;;;5075777;28;20630;-81
2022/01/11 05:18:22;;;;;;;226.20;91.73;;;-0.30;99.90;;;;;;5075292;28;20140;-83
2022/01/11 05:20:48;;;;;;;277.13;108.77;;;-0.30;99.90;;;;;;5092251;28;20082;-83
2022/01/11 05:23:14;;;;;;;272.60;109.33;;;-0.30;99.90;;;;;;5092047;28;20044;-83
2022/01/11 05:25:40;;;;;;;217.67;94.00;;;-0.20;99.90;;;;;;5085110;28;20078;-83
2022/01/11 05:28:06;;;;;;;248.03;101.27;;;-0.20;99.90;;;;;;5074838;28;20047;-82
2022/01/11 05:30:32;;;;;;;256.67;98.60;;;-0.20;99.90;;;;;;5091353;28;20044;-82
2022/01/11 05:32:58;;;;;;;277.17;109.67;;;-0.20;99.90;;;;;;5074273;28;20036;-82
2022/01/11 05:35:25;;;;;;;277.80;111.70;;;-0.20;99.90;;;;;;5091989;28;20185;-83
2022/01/11 05:37:51;;;;;;;194.23;81.47;;;-0.20;99.90;;;;;;5091305;28;20127;-83
2022/01/11 05:40:18;;;;;;;275.50;108.73;;;-0.20;99.90;;;;;;5092494;28;20032;-83
2022/01/11 05:42:48;;;;;;;287.33;113.27;;;-0.20;99.90;;;;;;5090883;28;20043;-80
2022/01/11 05:45:14;;;;;;;273.10;114.40;;;-0.20;99.90;;;;;;5074645;28;20520;-81
2022/01/11 05:47:40;;;;;;;277.80;108.60;;;-0.20;99.90;;;;;;5091187;28;20036;-82
2022/01/11 05:50:09;;;;;;;295.67;111.50;;;-0.20;99.90;;;;;;5091824;28;20074;-83
2022/01/11 05:52:35;;;;;;;289.60;108.73;;;-0.10;99.90;;;;;;5090605;28;20044;-82
2022/01/11 05:55:03;;;;;;;248.07;99.87;;;-0.20;99.90;;;;;;5074827;28;20134;-83
2022/01/11 05:57:28;;;;;;;292.37;109.43;;;-0.10;99.90;;;;;;5091184;28;20536;-81
2022/01/11 05:59:54;;;;;;;221.13;96.57;;;-0.10;99.90;;;;;;5091969;28;20040;-82
2022/01/11 06:02:19;;;;;;;241.53;100.27;;;-0.10;99.90;;;;;;5081380;28;20071;-83
2022/01/11 06:04:45;;;;;;;247.83;104.03;;;-0.20;99.90;;;;;;5091241;28;20043;-82
2022/01/11 06:07:11;;;;;;;174.00;81.33;;;-0.10;99.90;;;;;;5074451;28;20043;-81
2022/01/11 06:09:36;;;;;;;205.93;93.77;;;-0.20;99.90;;;;;;5074189;28;20051;-82
2022/01/11 06:12:02;;;;;;;258.60;104.63;;;0.00;99.90;;;;;;5074164;28;20032;-83
2022/01/11 06:14:28;;;;;;;212.67;93.53;;;-0.10;99.90;;;;;;5091685;28;20035;-83
2022/01/11 06:16:53;;;;;;;237.23;104.10;;;-0.10;99.90;;;;;;5091869;28;20040;-82
2022/01/11 06:19:19;;;;;;;205.67;88.63;;;-0.10;99.90;;;;;;5090930;28;20042;-84
2022/01/11 06:21:44;;;;;;;231.23;102.30;;;-0.20;99.90;;;;;;5091376;28;20046;-83
2022/01/11 06:24:10;;;;;;;305.73;118.63;;;-0.10;99.90;;;;;;5091131;28;20052;-83
2022/01/11 06:26:36;;;;;;;222.13;99.03;;;-0.10;99.90;;;;;;5077100;28;20043;-82
2022/01/11 06:29:02;;;;;;;227.37;100.13;;;-0.10;99.90;;;;;;5074575;28;20046;-83
2022/01/11 06:31:28;;;;;;;286.97;112.57;;;0.00;99.90;;;;;;5091768;28;20036;-80
2022/01/11 06:33:54;;;;;;;293.77;114.40;;;-0.10;99.90;;;;;;5091634;28;20181;-82
2022/01/11 06:36:20;;;;;;;263.33;109.57;;;-0.20;99.90;;;;;;5093781;28;20036;-83
2022/01/11 06:38:46;;;;;;;255.33;107.97;;;-0.10;99.90;;;;;;5075721;28;20032;-83
2022/01/11 06:41:12;;;;;;;340.77;129.43;;;-0.30;99.90;;;;;;5091420;28;20043;-82
2022/01/11 06:43:38;;;;;;;310.30;123.83;;;-0.10;99.90;;;;;;5091903;28;20032;-83
2022/01/11 06:46:05;;;;;;;280.73;112.93;;;-0.10;99.90;;;;;;5074645;28;20074;-83
2022/01/11 06:48:31;;;;;;;262.87;109.83;;;0.00;99.90;;;;;;5108271;28;20103;-81
2022/01/11 06:50:57;;;;;;;297.70;116.80;;;-0.10;99.90;;;;;;5114030;28;20044;-80
2022/01/11 06:53:23;;;;;;;245.40;102.80;;;0.20;99.90;;;;;;5113551;28;20104;-82
2022/01/11 06:55:50;;;;;;;280.27;118.97;;;-0.10;99.90;;;;;;5113917;28;20104;-80
2022/01/11 06:58:16;;;;;;;287.20;118.23;;;0.10;99.90;;;;;;5111758;28;20048;-80
2022/01/11 07:00:43;;;;;;;308.83;126.77;;;0.00;99.90;;;;;;5114158;28;20055;-82
2022/01/11 07:03:09;;;;;;;273.70;116.87;;;-0.10;99.90;;;;;;5096402;28;20028;-82
2022/01/11 07:05:34;;;;;;;266.80;114.33;;;0.00;99.90;;;;;;5109515;28;20050;-82
2022/01/11 07:08:00;;;;;;;344.70;128.27;;;0.10;99.90;;;;;;5097933;28;20043;-83
2022/01/11 07:10:25;;;;;;;344.83;130.17;;;-0.10;99.90;;;;;;5096386;28;20147;-81
2022/01/11 07:12:51;;;;;;;365.43;137.10;;;0.20;99.90;;;;;;5081949;28;20103;-83
2022/01/11 07:15:17;;;;;;;350.40;132.97;;;-0.10;99.90;;;;;;5081564;28;20451;-83
2022/01/11 07:17:43;;;;;;;318.67;118.33;;;-0.20;99.90;;;;;;5097876;28;20477;-82
2022/01/11 07:20:09;;;;;;;311.17;117.83;;;-0.10;99.90;;;;;;5081722;28;20122;-82
2022/01/11 07:22:37;;;;;;;258.87;109.83;;;0.00;99.90;;;;;;5096470;28;20073;-82
2022/01/11 07:25:04;;;;;;;318.00;121.23;;;-0.10;99.90;;;;;;5097199;28;20037;-80
2022/01/11 07:27:31;;;;;;;313.60;121.37;;;-0.10;99.90;;;;;;5078722;28;20040;-83
2022/01/11 07:29:57;;;;;;;302.57;116.67;;;-0.10;99.90;;;;;;5080350;28;20094;-83
2022/01/11 07:32:23;;;;;;;292.67;112.27;;;-0.10;99.90;;;;;;5078626;28;20048;-81
2022/01/11 07:34:48;;;;;;;248.07;101.40;;;-0.10;99.90;;;;;;5096590;28;20048;-81
2022/01/11 07:37:14;;;;;;;244.60;102.43;;;-0.10;99.90;;;;;;5095401;28;20032;-83
2022/01/11 07:39:40;;;;;;;228.80;99.53;;;0.10;99.90;;;;;;5096640;28;20040;-83
2022/01/11 07:42:05;;;;;;;197.30;83.13;;;0.00;99.90;;;;;;5095144;28;20063;-82
2022/01/11 07:44:31;;;;;;;194.50;86.83;;;-0.10;99.90;;;;;;5095421;28;20032;-82
2022/01/11 07:46:57;;;;;;;153.70;74.83;;;-0.20;99.90;;;;;;5077381;28;20036;-82
2022/01/11 07:49:23;;;;;;;141.97;68.43;;;-0.10;99.90;;;;;;5094750;28;20036;-83
2022/01/11 07:51:48;;;;;;;119.83;63.23;;;0.00;99.90;;;;;;5094364;28;20402;-83
2022/01/11 07:54:14;;;;;;;121.63;58.97;;;-0.20;99.90;;;;;;5097851;28;20036;-82
2022/01/11 07:56:40;;;;;;;114.03;60.40;;;-0.20;99.90;;;;;;5096947;28;20100;-82
2022/01/11 07:59:05;;;;;;;110.10;57.47;;;-0.20;99.90;;;;;;5080461;28;20092;-83
2022/01/11 08:01:31;;;;;;;103.80;53.80;;;-0.20;99.90;;;;;;5080467;28;20129;-83
2022/01/11 08:03:59;;;;;;;96.27;54.80;;;-0.20;99.90;;;;;;5096882;28;20071;-82
2022/01/11 08:06:26;;;;;;;101.60;50.73;;;-0.10;99.90;;;;;;5096888;28;20097;-83
2022/01/11 08:08:52;;;;;;;95.27;52.70;;;-0.10;99.90;;;;;;5079834;28;20403;-83
2022/01/11 08:11:18;;;;;;;94.80;52.13;;;0.50;99.90;;;;;;5079940;28;20043;-81
2022/01/11 08:13:43;;;;;;;92.30;48.37;;;-0.10;99.90;;;;;;5095531;28;20404;-83
2022/01/11 08:16:09;;;;;;;86.23;46.17;;;0.00;99.90;;;;;;5095735;28;20410;-83
2022/01/11 08:18:35;;;;;;;91.70;48.10;;;0.00;99.90;;;;;;5095146;28;20044;-83
2022/01/11 08:21:00;;;;;;;93.20;50.27;;;0.10;99.90;;;;;;5096150;28;20051;-83
2022/01/11 08:23:26;;;;;;;84.93;46.40;;;0.00;99.90;;;;;;5095521;28;20546;-83
2022/01/11 08:25:51;;;;;;;77.07;43.10;;;0.10;99.90;;;;;;5095393;28;20036;-83
2022/01/11 08:28:17;;;;;;;77.07;44.50;;;0.30;99.90;;;;;;5077562;28;20101;-82
2022/01/11 08:30:42;;;;;;;72.27;42.00;;;0.10;99.90;;;;;;5096945;28;20042;-83
2022/01/11 08:33:09;;;;;;;78.77;42.03;;;0.10;99.90;;;;;;5095640;28;20146;-83
2022/01/11 08:35:35;;;;;;;75.30;42.33;;;0.20;99.90;;;;;;5095226;28;20050;-79
2022/01/11 08:38:01;;;;;;;75.93;40.37;;;0.20;99.90;;;;;;5094720;28;20048;-83
2022/01/11 08:40:27;;;;;;;76.67;43.70;;;0.30;99.90;;;;;;5079486;28;20501;-84
2022/01/11 08:42:53;;;;;;;70.03;41.70;;;0.30;99.90;;;;;;5077188;28;20028;-82
2022/01/11 08:45:19;;;;;;;75.27;40.97;;;0.30;99.90;;;;;;5080010;28;20453;-81
2022/01/11 08:47:45;;;;;;;67.00;37.40;;;0.40;99.90;;;;;;5078561;28;20055;-82
2022/01/11 08:50:11;;;;;;;69.40;38.47;;;0.40;99.90;;;;;;5095613;28;20048;-82
2022/01/11 08:52:39;;;;;;;56.57;33.13;;;0.60;99.90;;;;;;5094962;28;20039;-81
2022/01/11 08:55:07;;;;;;;62.57;35.77;;;0.50;99.90;;;;;;5095604;28;20093;-82
2022/01/11 08:57:33;;;;;;;57.30;35.20;;;0.50;99.90;;;;;;5098739;28;20444;-81
2022/01/11 08:59:59;;;;;;;60.17;34.93;;;0.50;99.90;;;;;;5087208;28;20038;-82
2022/01/11 09:02:24;;;;;;;63.90;34.93;;;0.60;99.90;;;;;;5102324;28;20118;-82
2022/01/11 09:04:52;;;;;;;56.63;35.20;;;0.80;99.90;;;;;;5096733;28;20032;-82
2022/01/11 09:07:18;;;;;;;62.63;36.63;;;0.60;99.90;;;;;;5098819;28;20036;-82
2022/01/11 09:09:43;;;;;;;57.10;32.43;;;0.60;99.90;;;;;;5082215;28;20107;-82
2022/01/11 09:12:12;;;;;;;58.20;33.83;;;0.60;99.90;;;;;;5097539;28;20090;-81
2022/01/11 09:14:39;;;;;;;59.27;33.37;;;0.80;99.90;;;;;;5096790;28;20040;-82
2022/01/11 09:17:05;;;;;;;57.37;32.37;;;0.70;99.90;;;;;;5080616;28;20426;-82
2022/01/11 09:19:31;;;;;;;54.77;32.40;;;0.70;99.90;;;;;;5097206;28;20039;-82
2022/01/11 09:21:58;;;;;;;48.50;29.40;;;0.70;99.90;;;;;;5096122;28;20614;-82
2022/01/11 09:24:29;;;;;;;63.53;33.17;;;0.80;99.90;;;;;;5077327;28;20040;-83
2022/01/11 09:26:56;;;;;;;59.37;35.20;;;0.70;99.90;;;;;;5093362;28;20040;-83
2022/01/11 09:29:22;;;;;;;53.07;29.83;;;0.80;99.90;;;;;;5075895;28;20106;-80
2022/01/11 09:31:47;;;;;;;52.10;32.03;;;0.80;99.90;;;;;;5075710;28;20071;-83
2022/01/11 09:34:13;;;;;;;55.10;30.40;;;0.90;99.90;;;;;;5092061;28;20414;-83
2022/01/11 09:36:39;;;;;;;56.10;30.53;;;0.80;99.90;;;;;;5074980;28;20043;-83
2022/01/11 09:39:04;;;;;;;49.00;29.07;;;0.90;99.90;;;;;;5074916;28;20047;-84
2022/01/11 09:41:30;;;;;;;43.50;27.30;;;0.90;99.90;;;;;;5074625;28;20036;-83
2022/01/11 09:43:57;;;;;;;45.03;27.10;;;0.90;99.90;;;;;;5091362;28;20036;-84
2022/01/11 09:46:23;;;;;;;45.33;25.67;;;0.80;99.90;;;;;;5090971;28;20036;-83
2022/01/11 09:48:49;;;;;;;41.30;24.43;;;0.80;99.90;;;;;;5074246;28;20080;-84
2022/01/11 09:51:15;;;;;;;42.90;24.63;;;0.90;99.90;;;;;;5074725;28;20035;-84
2022/01/11 09:53:41;;;;;;;42.10;26.73;;;0.90;99.90;;;;;;5074507;28;20043;-84
2022/01/11 09:56:14;;;;;;;50.57;27.03;;;0.90;99.90;;;;;;5074368;28;20039;-83
2022/01/11 09:58:41;;;;;;;49.77;27.57;;;0.90;99.90;;;;;;5073936;28;20085;-85
2022/01/11 10:01:06;;;;;;;44.90;28.17;;;1.10;99.90;;;;;;5091016;28;20115;-85
2022/01/11 10:04:04;;;;;;;45.13;26.77;;;1.00;99.90;;;;;;5074498;28;20169;-85
2022/01/11 10:06:34;;;;;;;50.53;28.10;;;1.10;99.90;;;;;;5073556;28;20043;-85
2022/01/11 10:09:29;;;;;;;44.67;27.10;;;1.10;99.90;;;;;;5073809;28;20032;-85
2022/01/11 10:12:00;;;;;;;42.57;26.67;;;1.40;99.90;;;;;;5072285;28;20081;-84
2022/01/11 10:14:31;;;;;;;39.53;24.40;;;1.20;99.90;;;;;;5090632;28;20044;-84
2022/01/11 10:17:16;;;;;;;41.73;25.00;;;1.40;99.90;;;;;;5090811;28;20440;-84
2022/01/11 10:20:04;;;;;;;44.17;24.43;;;1.30;99.90;;;;;;5091250;28;20562;-84
2022/01/11 10:22:30;;;;;;;41.37;23.10;;;1.40;99.90;;;;;;5077402;28;20044;-84
2022/01/11 10:24:58;;;;;;;32.83;21.60;;;1.50;99.90;;;;;;5090817;28;20401;-83
2022/01/11 10:27:31;;;;;;;38.60;20.47;;;1.50;99.90;;;;;;5073619;28;20044;-83
2022/01/11 10:30:06;;;;;;;41.20;22.33;;;1.70;99.90;;;;;;5090117;28;20115;-84
2022/01/11 10:32:35;;;;;;;39.92;22.02;;;1.50;99.90;;;;;;5090679;28;20039;-84
2022/01/11 10:35:11;;;;;;;35.43;20.87;;;1.60;99.90;;;;;;5090673;28;20036;-84
2022/01/11 10:37:42;;;;;;;33.73;18.17;;;1.60;99.90;;;;;;5090379;28;20419;-84
2022/01/11 10:40:27;;;;;;;35.33;18.67;;;1.60;99.90;;;;;;5074038;28;20051;-85
2022/01/11 10:43:05;;;;;;;30.70;17.40;;;1.60;99.90;;;;;;5074146;28;20236;-85
2022/01/11 10:45:58;;;;;;;33.00;17.20;;;1.60;99.90;;;;;;5090381;28;20532;-84
2022/01/11 10:48:27;;;;;;;27.90;15.53;;;1.50;99.90;;;;;;5080647;28;20043;-86
2022/01/11 10:50:59;;;;;;;27.37;15.63;;;1.60;99.90;;;;;;5081253;28;20043;-84
2022/01/11 10:53:38;;;;;;;24.23;13.57;;;1.70;99.90;;;;;;5105130;28;20044;-84
2022/01/11 10:56:05;;;;;;;26.43;14.63;;;2.00;99.90;;;;;;5103193;28;20093;-84
2022/01/11 10:58:36;;;;;;;21.17;10.93;;;2.00;99.90;;;;;;5074134;28;20040;-83
2022/01/11 11:01:03;;;;;;;23.13;13.13;;;2.30;99.90;;;;;;5090185;28;20066;-83
2022/01/11 11:03:32;;;;;;;19.20;10.27;;;2.30;99.90;;;;;;5089196;28;20032;-84
2022/01/11 11:05:58;;;;;;;21.60;10.77;;;2.50;99.90;;;;;;5090658;28;20115;-84
2022/01/11 11:08:26;;;;;;;22.52;12.45;;;2.70;99.90;;;;;;5074071;28;20055;-83
2022/01/11 11:10:55;;;;;;;19.95;11.23;;;2.70;99.90;;;;;;5073959;28;20051;-83
2022/01/11 11:13:24;;;;;;;16.95;10.15;;;2.70;99.90;;;;;;5090957;28;20344;-83
2022/01/11 11:15:51;;;;;;;15.38;9.32;;;2.70;99.90;;;;;;5090118;28;20048;-83
2022/01/11 11:18:42;;;;;;;18.40;10.75;;;2.90;99.90;;;;;;5073702;28;20300;-84
2022/01/11 11:21:32;;;;;;;16.88;10.93;;;3.10;99.90;;;;;;5090406;28;20071;-85
2022/01/11 11:24:03;;;;;;;14.93;9.52;;;3.20;99.90;;;;;;5089320;28;20036;-84
2022/01/11 11:26:37;;;;;;;15.68;9.82;;;3.30;99.90;;;;;;5073554;28;20137;-84
2022/01/11 11:29:05;;;;;;;16.67;9.38;;;3.60;99.90;;;;;;5077358;28;20087;-84
2022/01/11 11:31:31;;;;;;;15.48;9.25;;;3.50;99.90;;;;;;5077421;28;20486;-84
2022/01/11 11:33:57;;;;;;;17.20;10.25;;;3.70;99.90;;;;;;5077427;28;20074;-83
2022/01/11 11:36:23;;;;;;;14.40;9.40;;;3.70;99.90;;;;;;5076951;28;20059;-84
2022/01/11 11:39:03;;;;;;;18.02;9.63;;;3.90;99.90;;;;;;5094060;28;20044;-84
2022/01/11 11:41:29;;;;;;;18.73;10.27;;;4.20;99.90;;;;;;5077223;28;20032;-84
2022/01/11 11:44:07;;;;;;;18.98;11.32;;;4.00;99.90;;;;;;5076867;28;20068;-85
2022/01/11 11:46:46;;;;;;;20.90;11.02;;;4.20;99.90;;;;;;5093372;28;20054;-85
2022/01/11 11:49:17;;;;;;;18.95;10.50;;;4.00;99.90;;;;;;5076983;28;20090;-84
2022/01/11 11:51:44;;;;;;;17.65;9.70;;;4.10;99.90;;;;;;5093581;28;20131;-84
2022/01/11 11:54:15;;;;;;;17.17;11.55;;;4.40;99.90;;;;;;5093774;28;20032;-85
2022/01/11 11:56:45;;;;;;;17.05;9.50;;;4.20;99.90;;;;;;5076634;28;20039;-84
2022/01/11 11:59:11;;;;;;;15.10;9.18;;;4.20;99.90;;;;;;5093836;28;20040;-84
2022/01/11 12:01:42;;;;;;;14.30;9.68;;;4.40;99.90;;;;;;5093912;28;20054;-84
2022/01/11 12:04:51;;;;;;;17.92;9.43;;;4.20;99.90;;;;;;5093147;28;20040;-83
2022/01/11 12:07:42;;;;;;;14.40;8.50;;;4.40;99.90;;;;;;5093090;28;20039;-84
2022/01/11 12:10:26;;;;;;;18.67;9.25;;;4.60;99.90;;;;;;5077177;28;20075;-83
2022/01/11 12:12:54;;;;;;;14.27;8.48;;;4.80;99.90;;;;;;5093669;28;20127;-84
2022/01/11 12:15:33;;;;;;;13.82;9.10;;;5.00;99.90;;;;;;5076457;28;20035;-84
2022/01/11 12:18:04;;;;;;;11.95;6.78;;;5.30;99.90;;;;;;5085034;28;20035;-81
2022/01/11 12:20:45;;;;;;;13.90;8.98;;;5.60;99.90;;;;;;5118656;28;20066;-79
2022/01/11 12:23:38;;;;;;;13.07;7.50;;;5.90;99.90;;;;;;5101388;28;20047;-80